createdAt,value
2023-05-13T00:00:42.994Z,74.88
2023-05-13T00:01:43.013Z,74.95
2023-05-13T00:02:43.128Z,74.92
2023-05-13T00:03:43.240Z,74.85
2023-05-13T00:04:43.019Z,74.71
2023-05-13T00:05:43.070Z,74.60
2023-05-13T00:06:43.044Z,74.62
2023-05-13T00:07:43.062Z,74.62
2023-05-13T00:08:43.099Z,74.64
2023-05-13T00:09:43.097Z,74.60
2023-05-13T00:10:43.110Z,74.63
2023-05-13T00:11:43.168Z,75.11
2023-05-13T00:12:43.189Z,75.25
2023-05-13T00:13:43.203Z,75.32
2023-05-13T00:14:43.259Z,75.68
2023-05-13T00:15:43.274Z,75.92
2023-05-13T00:16:43.409Z,75.82
2023-05-13T00:17:43.435Z,76.11
2023-05-13T00:18:43.439Z,76.21
2023-05-13T00:19:43.440Z,76.19
2023-05-13T00:20:43.469Z,76.25
2023-05-13T00:21:43.501Z,76.16
2023-05-13T00:22:43.558Z,76.12
2023-05-13T00:23:43.568Z,75.93
2023-05-13T00:24:43.593Z,75.90
2023-05-13T00:25:43.630Z,75.86
2023-05-13T00:26:43.630Z,75.76
2023-05-13T00:27:43.684Z,75.74
2023-05-13T00:28:43.666Z,75.70
2023-05-13T00:29:43.714Z,75.95
2023-05-13T00:30:43.752Z,75.91
2023-05-13T00:31:43.789Z,76.01
2023-05-13T00:32:43.822Z,75.87
2023-05-13T00:33:43.835Z,75.88
2023-05-13T00:34:43.855Z,75.88
2023-05-13T00:35:43.890Z,75.92
2023-05-13T00:36:43.940Z,76.00
2023-05-13T00:37:43.995Z,75.89
2023-05-13T00:38:44.021Z,75.87
2023-05-13T00:39:44.037Z,75.68
2023-05-13T00:40:44.074Z,75.75
2023-05-13T00:41:44.112Z,75.61
2023-05-13T00:42:44.131Z,75.49
2023-05-13T00:43:44.185Z,75.47
2023-05-13T00:44:44.213Z,75.44
2023-05-13T00:45:44.299Z,75.54
2023-05-13T00:46:44.368Z,75.52
2023-05-13T00:47:44.456Z,75.37
2023-05-13T00:48:44.486Z,75.39
2023-05-13T00:49:44.559Z,75.39
2023-05-13T00:50:44.643Z,75.40
2023-05-13T00:51:44.675Z,75.55
2023-05-13T00:52:44.710Z,75.77
2023-05-13T00:53:44.757Z,75.80
2023-05-13T00:54:44.792Z,75.92
2023-05-13T00:55:44.842Z,75.85
2023-05-13T00:56:44.850Z,75.81
2023-05-13T00:57:44.919Z,75.82
2023-05-13T00:58:44.946Z,75.75
2023-05-13T00:59:44.996Z,75.71
2023-05-13T01:00:45.139Z,75.72
2023-05-13T01:01:45.363Z,75.69
2023-05-13T01:02:45.234Z,75.62
2023-05-13T01:03:45.185Z,75.55
2023-05-13T01:04:45.208Z,75.38
2023-05-13T01:05:45.208Z,75.17
2023-05-13T01:06:45.225Z,75.02
2023-05-13T01:07:45.229Z,74.92
2023-05-13T01:08:45.240Z,74.74
2023-05-13T01:09:45.235Z,74.69
2023-05-13T01:10:45.233Z,74.58
2023-05-13T01:11:45.247Z,74.42
2023-05-13T01:12:45.257Z,74.31
2023-05-13T01:13:45.256Z,74.24
2023-05-13T01:14:45.265Z,74.06
2023-05-13T01:15:45.320Z,74.02
2023-05-13T01:16:45.370Z,73.85
2023-05-13T01:17:45.393Z,73.61
2023-05-13T01:18:45.419Z,73.56
2023-05-13T01:19:45.390Z,73.48
2023-05-13T01:20:45.413Z,73.45
2023-05-13T01:21:45.412Z,73.36
2023-05-13T01:22:45.469Z,73.28
2023-05-13T01:23:45.500Z,73.20
2023-05-13T01:24:45.528Z,73.28
2023-05-13T01:25:45.511Z,73.34
2023-05-13T01:26:45.517Z,73.52
2023-05-13T01:27:45.538Z,73.57
2023-05-13T01:28:45.532Z,73.56
2023-05-13T01:29:45.547Z,73.55
2023-05-13T01:30:45.561Z,73.35
2023-05-13T01:31:45.640Z,73.18
2023-05-13T01:32:45.633Z,73.16
2023-05-13T01:33:45.602Z,73.10
2023-05-13T01:34:45.610Z,72.98
2023-05-13T01:35:45.631Z,72.92
2023-05-13T01:36:45.629Z,72.80
2023-05-13T01:37:45.691Z,72.70
2023-05-13T01:38:45.737Z,72.55
2023-05-13T01:39:45.793Z,72.45
2023-05-13T01:40:45.840Z,72.00
2023-05-13T01:41:45.882Z,72.04
2023-05-13T01:42:45.925Z,71.85
2023-05-13T01:43:45.955Z,71.77
2023-05-13T01:44:46.680Z,71.58
2023-05-13T01:45:46.030Z,71.43
2023-05-13T01:46:46.085Z,71.39
2023-05-13T01:47:46.132Z,71.09
2023-05-13T01:48:46.080Z,71.03
2023-05-13T01:49:46.129Z,71.09
2023-05-13T01:50:46.172Z,71.06
2023-05-13T01:51:46.184Z,70.98
2023-05-13T01:52:46.211Z,70.85
2023-05-13T01:53:46.258Z,71.07
2023-05-13T01:54:46.327Z,71.27
2023-05-13T01:55:46.389Z,71.34
2023-05-13T01:56:47.520Z,71.51
2023-05-13T01:57:46.460Z,71.71
2023-05-13T01:58:46.465Z,71.89
2023-05-13T01:59:46.458Z,71.93
2023-05-13T02:00:46.463Z,71.97
2023-05-13T02:01:46.497Z,71.91
2023-05-13T02:02:46.593Z,71.89
2023-05-13T02:03:46.567Z,72.04
2023-05-13T02:04:46.513Z,72.17
2023-05-13T02:05:46.532Z,72.31
2023-05-13T02:06:46.539Z,72.37
2023-05-13T02:07:46.558Z,72.49
2023-05-13T02:08:46.566Z,72.84
2023-05-13T02:09:46.606Z,73.17
2023-05-13T02:10:46.643Z,73.52
2023-05-13T02:11:46.708Z,73.67
2023-05-13T02:12:46.776Z,73.91
2023-05-13T02:13:46.828Z,73.84
2023-05-13T02:14:46.875Z,74.10
2023-05-13T02:15:46.925Z,74.37
2023-05-13T02:16:47.004Z,74.48
2023-05-13T02:17:47.110Z,74.61
2023-05-13T02:18:47.107Z,74.51
2023-05-13T02:19:47.217Z,74.69
2023-05-13T02:20:47.239Z,74.57
2023-05-13T02:21:47.285Z,74.72
2023-05-13T02:22:47.324Z,74.80
2023-05-13T02:23:47.374Z,74.70
2023-05-13T02:24:47.417Z,74.68
2023-05-13T02:25:47.439Z,74.53
2023-05-13T02:26:47.469Z,74.62
2023-05-13T02:27:47.497Z,74.60
2023-05-13T02:28:47.538Z,74.53
2023-05-13T02:29:47.530Z,74.53
2023-05-13T02:30:47.543Z,74.50
2023-05-13T02:31:47.598Z,74.42
2023-05-13T02:32:47.671Z,74.37
2023-05-13T02:33:47.590Z,74.31
2023-05-13T02:34:47.587Z,74.27
2023-05-13T02:35:47.629Z,74.32
2023-05-13T02:36:47.651Z,74.43
2023-05-13T02:37:47.648Z,74.52
2023-05-13T02:38:47.673Z,74.35
2023-05-13T02:39:47.692Z,74.45
2023-05-13T02:40:47.715Z,74.64
2023-05-13T02:41:47.774Z,74.72
2023-05-13T02:42:47.809Z,74.72
2023-05-13T02:43:47.855Z,74.71
2023-05-13T02:44:47.947Z,74.65
2023-05-13T02:45:48.033Z,74.69
2023-05-13T02:46:48.027Z,74.74
2023-05-13T02:47:48.068Z,74.68
2023-05-13T02:48:48.136Z,74.60
2023-05-13T02:49:48.215Z,74.76
2023-05-13T02:50:48.299Z,74.85
2023-05-13T02:51:48.394Z,74.77
2023-05-13T02:52:48.467Z,74.70
2023-05-13T02:53:48.709Z,74.64
2023-05-13T02:54:48.568Z,74.58
2023-05-13T02:55:48.597Z,74.61
2023-05-13T02:56:48.620Z,74.85
2023-05-13T02:57:48.679Z,74.93
2023-05-13T02:58:48.773Z,74.94
2023-05-13T02:59:48.840Z,75.03
2023-05-13T03:00:48.771Z,75.00
2023-05-13T03:01:48.863Z,74.91
2023-05-13T03:02:48.924Z,74.88
2023-05-13T03:03:48.931Z,74.84
2023-05-13T03:04:48.942Z,75.03
2023-05-13T03:05:49.009Z,75.48
2023-05-13T03:06:49.081Z,75.94
2023-05-13T03:07:49.210Z,76.05
2023-05-13T03:08:49.274Z,75.87
2023-05-13T03:09:49.345Z,75.70
2023-05-13T03:10:49.420Z,75.70
2023-05-13T03:11:49.513Z,75.74
2023-05-13T03:12:49.577Z,75.88
2023-05-13T03:13:49.663Z,76.17
2023-05-13T03:14:49.768Z,76.14
2023-05-13T03:15:49.895Z,76.32
2023-05-13T03:16:49.969Z,76.29
2023-05-13T03:17:50.075Z,76.23
2023-05-13T03:18:50.223Z,76.35
2023-05-13T03:19:50.293Z,76.46
2023-05-13T03:20:50.368Z,76.40
2023-05-13T03:21:50.441Z,76.44
2023-05-13T03:22:50.576Z,76.60
2023-05-13T03:23:50.667Z,76.79
2023-05-13T03:24:50.715Z,76.78
2023-05-13T03:25:50.794Z,76.87
2023-05-13T03:26:50.849Z,76.74
2023-05-13T03:27:50.894Z,76.77
2023-05-13T03:28:50.937Z,76.61
2023-05-13T03:29:50.979Z,76.52
2023-05-13T03:30:51.098Z,76.49
2023-05-13T03:31:51.183Z,76.65
2023-05-13T03:32:51.199Z,76.44
2023-05-13T03:33:51.253Z,76.35
2023-05-13T03:34:51.328Z,76.50
2023-05-13T03:35:51.407Z,76.39
2023-05-13T03:36:51.508Z,76.41
2023-05-13T03:37:51.590Z,76.50
2023-05-13T03:38:51.678Z,76.48
2023-05-13T03:39:51.860Z,76.40
2023-05-13T03:40:51.872Z,76.47
2023-05-13T03:41:51.973Z,76.47
2023-05-13T03:42:52.061Z,76.42
2023-05-13T03:43:52.169Z,76.51
2023-05-13T03:44:52.265Z,76.49
2023-05-13T03:45:52.362Z,76.57
2023-05-13T03:46:52.535Z,76.68
2023-05-13T03:47:52.624Z,76.66
2023-05-13T03:48:52.639Z,76.52
2023-05-13T03:49:52.748Z,76.62
2023-05-13T03:50:52.837Z,76.60
2023-05-13T03:51:52.915Z,76.62
2023-05-13T03:52:52.995Z,76.69
2023-05-13T03:53:53.062Z,76.72
2023-05-13T03:54:53.103Z,76.59
2023-05-13T03:55:53.165Z,76.55
2023-05-13T03:56:53.188Z,76.48
2023-05-13T03:57:53.266Z,76.35
2023-05-13T03:58:53.351Z,76.21
2023-05-13T03:59:53.443Z,76.23
2023-05-13T04:00:53.509Z,76.22
2023-05-13T04:01:53.647Z,76.34
2023-05-13T04:02:53.646Z,76.55
2023-05-13T04:03:53.610Z,76.59
2023-05-13T04:04:53.666Z,76.55
2023-05-13T04:05:53.722Z,76.43
2023-05-13T04:06:53.801Z,76.39
2023-05-13T04:07:53.826Z,76.41
2023-05-13T04:08:53.895Z,76.33
2023-05-13T04:09:53.905Z,76.35
2023-05-13T04:10:53.994Z,76.26
2023-05-13T04:11:54.112Z,76.20
2023-05-13T04:12:54.125Z,76.35
2023-05-13T04:13:54.173Z,76.29
2023-05-13T04:14:54.250Z,76.31
2023-05-13T04:15:54.395Z,76.35
2023-05-13T04:16:54.400Z,76.39
2023-05-13T04:17:54.422Z,76.32
2023-05-13T04:18:54.417Z,76.46
2023-05-13T04:19:54.464Z,76.66
2023-05-13T04:20:54.548Z,76.62
2023-05-13T04:21:54.634Z,76.50
2023-05-13T04:22:54.687Z,76.76
2023-05-13T04:23:54.713Z,76.79
2023-05-13T04:24:54.786Z,76.67
2023-05-13T04:25:54.827Z,76.97
2023-05-13T04:26:54.873Z,76.98
2023-05-13T04:27:54.942Z,77.19
2023-05-13T04:28:54.988Z,77.12
2023-05-13T04:29:55.042Z,77.08
2023-05-13T04:30:55.100Z,77.00
2023-05-13T04:31:55.224Z,77.08
2023-05-13T04:32:55.299Z,77.07
2023-05-13T04:33:55.353Z,77.01
2023-05-13T04:34:55.422Z,77.03
2023-05-13T04:35:55.479Z,77.10
2023-05-13T04:36:55.490Z,76.96
2023-05-13T04:37:55.529Z,76.89
2023-05-13T04:38:55.589Z,76.82
2023-05-13T04:39:55.603Z,76.89
2023-05-13T04:40:55.652Z,76.80
2023-05-13T04:41:55.685Z,76.72
2023-05-13T04:42:55.759Z,76.91
2023-05-13T04:43:55.935Z,77.03
2023-05-13T04:44:55.945Z,77.12
2023-05-13T04:45:56.056Z,77.13
2023-05-13T04:46:56.118Z,77.01
2023-05-13T04:47:58.454Z,76.87
2023-05-13T04:48:56.235Z,76.79
2023-05-13T04:49:56.275Z,76.89
2023-05-13T04:50:56.316Z,76.87
2023-05-13T04:51:56.333Z,76.79
2023-05-13T04:52:56.387Z,76.68
2023-05-13T04:53:56.348Z,76.59
2023-05-13T04:54:56.365Z,76.55
2023-05-13T04:55:56.750Z,76.59
2023-05-13T04:56:56.407Z,76.54
2023-05-13T04:57:56.441Z,76.42
2023-05-13T04:58:56.421Z,76.34
2023-05-13T04:59:56.453Z,76.36
2023-05-13T05:00:56.443Z,76.46
2023-05-13T05:01:56.482Z,76.35
2023-05-13T05:02:56.513Z,76.27
2023-05-13T05:03:56.528Z,76.17
2023-05-13T05:04:56.481Z,76.12
2023-05-13T05:05:56.475Z,75.99
2023-05-13T05:06:56.491Z,75.63
2023-05-13T05:07:56.482Z,75.55
2023-05-13T05:08:56.500Z,75.56
2023-05-13T05:09:56.526Z,75.64
2023-05-13T05:10:56.603Z,75.76
2023-05-13T05:11:56.675Z,75.77
2023-05-13T05:12:56.754Z,75.69
2023-05-13T05:13:56.791Z,75.91
2023-05-13T05:14:56.841Z,75.84
2023-05-13T05:15:56.932Z,75.63
2023-05-13T05:16:57.047Z,75.40
2023-05-13T05:17:57.327Z,75.45
2023-05-13T05:18:57.252Z,75.55
2023-05-13T05:19:57.225Z,75.44
2023-05-13T05:20:57.289Z,75.31
2023-05-13T05:21:57.385Z,75.34
2023-05-13T05:22:57.453Z,75.28
2023-05-13T05:23:57.478Z,75.00
2023-05-13T05:24:57.517Z,74.98
2023-05-13T05:26:04.401Z,75.08
2023-05-13T05:26:57.621Z,74.96
2023-05-13T05:27:57.634Z,74.96
2023-05-13T05:28:57.650Z,74.97
2023-05-13T05:29:57.723Z,75.05
2023-05-13T05:30:57.706Z,75.24
2023-05-13T05:31:57.938Z,75.33
2023-05-13T05:32:57.823Z,75.44
2023-05-13T05:33:57.794Z,75.52
2023-05-13T05:34:58.033Z,75.41
2023-05-13T05:35:57.859Z,75.50
2023-05-13T05:36:57.904Z,75.36
2023-05-13T05:37:57.907Z,75.21
2023-05-13T05:38:57.946Z,75.34
2023-05-13T05:39:57.968Z,75.34
2023-05-13T05:40:58.043Z,75.42
2023-05-13T05:41:58.005Z,75.62
2023-05-13T05:42:58.032Z,75.58
2023-05-13T05:43:58.070Z,75.55
2023-05-13T05:44:58.089Z,75.39
2023-05-13T05:45:58.145Z,75.25
2023-05-13T05:46:58.135Z,75.12
2023-05-13T05:47:58.415Z,75.21
2023-05-13T05:48:58.205Z,75.22
2023-05-13T05:49:58.223Z,75.19
2023-05-13T05:50:58.251Z,75.19
2023-05-13T05:51:58.296Z,75.26
2023-05-13T05:52:58.306Z,75.18
2023-05-13T05:53:58.391Z,75.29
2023-05-13T05:54:58.379Z,75.39
2023-05-13T05:55:58.389Z,75.25
2023-05-13T05:56:58.416Z,75.20
2023-05-13T05:57:58.432Z,74.93
2023-05-13T05:58:58.454Z,74.74
2023-05-13T05:59:58.486Z,74.74
2023-05-13T06:00:58.497Z,74.70
2023-05-13T06:01:58.575Z,74.46
2023-05-13T06:02:58.647Z,74.32
2023-05-13T06:03:58.675Z,74.72
2023-05-13T06:04:58.564Z,74.62
2023-05-13T06:05:58.576Z,74.86
2023-05-13T06:06:58.642Z,74.84
2023-05-13T06:07:58.619Z,74.92
2023-05-13T06:08:58.627Z,75.15
2023-05-13T06:09:58.639Z,75.72
2023-05-13T06:10:58.665Z,75.58
2023-05-13T06:11:58.673Z,75.66
2023-05-13T06:12:58.675Z,75.40
2023-05-13T06:13:58.708Z,75.44
2023-05-13T06:14:58.777Z,75.19
2023-05-13T06:15:58.951Z,75.25
2023-05-13T06:16:58.909Z,75.35
2023-05-13T06:17:59.006Z,75.17
2023-05-13T06:18:59.118Z,75.47
2023-05-13T06:19:59.148Z,75.68
2023-05-13T06:20:59.199Z,75.92
2023-05-13T06:22:00.185Z,76.07
2023-05-13T06:22:59.285Z,75.79
2023-05-13T06:23:59.296Z,76.06
2023-05-13T06:24:59.310Z,75.99
2023-05-13T06:25:59.340Z,75.98
2023-05-13T06:26:59.340Z,75.85
2023-05-13T06:28:01.526Z,76.13
2023-05-13T06:28:59.379Z,75.49
2023-05-13T06:29:59.398Z,75.64
2023-05-13T06:30:59.443Z,76.00
2023-05-13T06:31:59.443Z,75.81
2023-05-13T06:33:02.197Z,76.10
2023-05-13T06:33:59.459Z,76.29
2023-05-13T06:34:59.481Z,75.89
2023-05-13T06:35:59.508Z,75.75
2023-05-13T06:36:59.494Z,76.05
2023-05-13T06:37:59.550Z,75.95
2023-05-13T06:38:59.526Z,76.19
2023-05-13T06:39:59.513Z,75.47
2023-05-13T06:40:59.506Z,75.74
2023-05-13T06:41:59.504Z,75.61
2023-05-13T06:42:59.498Z,75.50
2023-05-13T06:43:59.504Z,75.66
2023-05-13T06:44:59.558Z,75.16
2023-05-13T06:45:59.515Z,75.23
2023-05-13T06:46:59.540Z,75.21
2023-05-13T06:47:59.556Z,74.90
2023-05-13T06:48:59.507Z,74.66
2023-05-13T06:49:59.515Z,74.70
2023-05-13T06:50:59.510Z,74.77
2023-05-13T06:51:59.536Z,75.07
2023-05-13T06:52:59.545Z,74.06
2023-05-13T06:53:59.567Z,73.77
2023-05-13T06:54:59.536Z,74.00
2023-05-13T06:55:59.521Z,74.05
2023-05-13T06:56:59.530Z,73.94
2023-05-13T06:57:59.536Z,73.96
2023-05-13T06:58:59.550Z,74.10
2023-05-13T06:59:59.570Z,74.21
2023-05-13T07:00:59.544Z,74.34
2023-05-13T07:01:59.537Z,74.31
2023-05-13T07:02:59.555Z,74.14
2023-05-13T07:03:59.574Z,74.23
2023-05-13T07:04:59.527Z,73.95
2023-05-13T07:05:59.524Z,73.84
2023-05-13T07:06:59.519Z,73.21
2023-05-13T07:07:59.543Z,73.21
2023-05-13T07:08:59.531Z,73.54
2023-05-13T07:09:59.522Z,73.41
2023-05-13T07:10:59.527Z,73.27
2023-05-13T07:11:59.576Z,73.79
2023-05-13T07:12:59.645Z,74.01
2023-05-13T07:13:59.645Z,72.50
2023-05-13T07:14:59.675Z,73.06
2023-05-13T07:15:59.707Z,72.23
2023-05-13T07:16:59.822Z,72.03
2023-05-13T07:17:59.873Z,72.92
2023-05-13T07:18:59.956Z,73.20
2023-05-13T07:19:59.990Z,73.52
2023-05-13T07:21:00.075Z,74.02
2023-05-13T07:22:00.144Z,74.25
2023-05-13T07:23:00.270Z,73.94
2023-05-13T07:24:00.274Z,74.52
2023-05-13T07:25:00.316Z,73.09
2023-05-13T07:26:00.385Z,72.06
2023-05-13T07:27:00.451Z,73.08
2023-05-13T07:28:00.528Z,72.70
2023-05-13T07:29:00.581Z,73.15
2023-05-13T07:30:00.650Z,72.82
2023-05-13T07:31:00.795Z,72.72
2023-05-13T07:32:00.804Z,72.61
2023-05-13T07:33:00.940Z,73.23
2023-05-13T07:34:00.950Z,73.04
2023-05-13T07:35:01.011Z,72.81
2023-05-13T07:36:01.138Z,72.61
2023-05-13T07:37:01.165Z,72.75
2023-05-13T07:38:01.267Z,72.73
2023-05-13T07:39:02.171Z,72.51
2023-05-13T07:40:01.368Z,73.00
2023-05-13T07:41:01.358Z,72.02
2023-05-13T07:42:01.461Z,72.76
2023-05-13T07:43:01.502Z,72.43
2023-05-13T07:44:01.594Z,72.44
2023-05-13T07:45:01.628Z,72.73
2023-05-13T07:46:01.660Z,73.01
2023-05-13T07:47:01.791Z,72.09
2023-05-13T07:48:01.822Z,72.01
2023-05-13T07:49:01.833Z,70.89
2023-05-13T07:50:01.886Z,71.78
2023-05-13T07:51:01.947Z,71.53
2023-05-13T07:52:01.982Z,71.64
2023-05-13T07:53:02.018Z,71.52
2023-05-13T07:54:02.015Z,71.27
2023-05-13T07:55:02.002Z,71.18
2023-05-13T07:56:02.048Z,71.04
2023-05-13T07:57:02.027Z,70.50
2023-05-13T07:58:02.085Z,69.96
2023-05-13T07:59:02.158Z,70.46
2023-05-13T08:00:02.203Z,70.69
2023-05-13T08:01:02.282Z,70.44
2023-05-13T08:02:02.371Z,71.17
2023-05-13T08:03:02.451Z,70.65
2023-05-13T08:04:02.637Z,70.47
2023-05-13T08:05:02.545Z,70.20
2023-05-13T08:06:02.510Z,69.96
2023-05-13T08:07:02.536Z,70.40
2023-05-13T08:08:03.631Z,70.40
2023-05-13T08:09:02.583Z,70.42
2023-05-13T08:10:02.601Z,70.21
2023-05-13T08:11:02.646Z,69.62
2023-05-13T08:12:02.744Z,69.78
2023-05-13T08:13:02.741Z,69.22
2023-05-13T08:14:02.745Z,69.62
2023-05-13T08:15:02.751Z,69.32
2023-05-13T08:16:02.811Z,69.76
2023-05-13T08:17:02.806Z,69.33
2023-05-13T08:18:02.901Z,68.64
2023-05-13T08:19:02.881Z,67.92
2023-05-13T08:20:03.739Z,67.04
2023-05-13T08:21:02.871Z,66.16
2023-05-13T08:22:02.914Z,65.88
2023-05-13T08:23:02.930Z,66.41
2023-05-13T08:24:02.966Z,66.61
2023-05-13T08:25:03.009Z,65.21
2023-05-13T08:26:03.006Z,65.15
2023-05-13T08:27:03.016Z,64.87
2023-05-13T08:28:03.075Z,65.23
2023-05-13T08:29:03.070Z,63.66
2023-05-13T08:30:03.172Z,63.13
2023-05-13T08:31:03.101Z,62.96
2023-05-13T08:32:03.190Z,64.08
2023-05-13T08:33:03.184Z,64.35
2023-05-13T08:34:03.194Z,64.62
2023-05-13T08:35:03.239Z,65.46
2023-05-13T08:36:03.256Z,64.66
2023-05-13T08:37:03.293Z,63.85
2023-05-13T08:38:03.310Z,63.05
2023-05-13T08:39:03.337Z,62.51
2023-05-13T08:40:03.370Z,61.99
2023-05-13T08:41:03.403Z,61.80
2023-05-13T08:42:03.419Z,62.64
2023-05-13T08:43:03.415Z,63.10
2023-05-13T08:44:03.472Z,63.21
2023-05-13T08:45:03.470Z,63.37
2023-05-13T08:46:03.544Z,63.88
2023-05-13T08:47:03.524Z,63.43
2023-05-13T08:48:03.564Z,62.98
2023-05-13T08:49:03.537Z,63.24
2023-05-13T08:50:03.560Z,63.49
2023-05-13T08:51:03.575Z,63.17
2023-05-13T08:52:03.608Z,63.11
2023-05-13T08:53:03.625Z,63.27
2023-05-13T08:54:03.635Z,63.05
2023-05-13T08:55:03.659Z,62.30
2023-05-13T08:56:03.703Z,62.29
2023-05-13T08:57:03.706Z,62.18
2023-05-13T08:58:03.741Z,62.49
2023-05-13T08:59:03.770Z,62.01
2023-05-13T09:00:03.826Z,62.56
2023-05-13T09:01:03.878Z,62.58
2023-05-13T09:02:03.826Z,62.09
2023-05-13T09:03:03.862Z,61.95
2023-05-13T09:04:03.906Z,61.84
2023-05-13T09:05:03.959Z,61.87
2023-05-13T09:06:03.926Z,61.94
2023-05-13T09:07:03.886Z,62.16
2023-05-13T09:08:04.043Z,61.87
2023-05-13T09:09:03.880Z,62.19
2023-05-13T09:10:03.875Z,62.12
2023-05-13T09:11:03.861Z,61.65
2023-05-13T09:12:03.833Z,60.92
2023-05-13T09:13:03.827Z,61.16
2023-05-13T09:14:03.833Z,61.33
2023-05-13T09:15:03.860Z,61.07
2023-05-13T09:16:03.968Z,61.33
2023-05-13T09:17:03.920Z,61.86
2023-05-13T09:18:04.051Z,61.85
2023-05-13T09:19:04.112Z,62.03
2023-05-13T09:20:04.050Z,61.23
2023-05-13T09:21:03.988Z,61.06
2023-05-13T09:22:04.006Z,61.30
2023-05-13T09:23:04.016Z,61.92
2023-05-13T09:24:03.996Z,62.22
2023-05-13T09:25:04.000Z,62.32
2023-05-13T09:26:03.987Z,63.42
2023-05-13T09:27:04.013Z,62.76
2023-05-13T09:28:04.036Z,62.43
2023-05-13T09:29:04.056Z,63.33
2023-05-13T09:30:04.054Z,62.89
2023-05-13T09:31:04.126Z,62.27
2023-05-13T09:32:04.215Z,62.64
2023-05-13T09:33:04.157Z,62.29
2023-05-13T09:34:04.156Z,62.41
2023-05-13T09:35:04.151Z,62.72
2023-05-13T09:36:04.144Z,62.40
2023-05-13T09:37:04.156Z,62.79
2023-05-13T09:38:04.190Z,63.04
2023-05-13T09:39:04.218Z,63.52
2023-05-13T09:40:04.233Z,61.89
2023-05-13T09:41:04.257Z,60.65
2023-05-13T09:42:05.168Z,60.40
2023-05-13T09:43:04.269Z,60.14
2023-05-13T09:44:04.300Z,60.68
2023-05-13T09:45:04.309Z,60.90
2023-05-13T09:46:04.355Z,61.25
2023-05-13T09:47:04.399Z,60.07
2023-05-13T09:48:04.410Z,59.80
2023-05-13T09:49:04.422Z,58.64
2023-05-13T09:50:04.381Z,58.22
2023-05-13T09:51:04.362Z,57.82
2023-05-13T09:52:04.308Z,57.42
2023-05-13T09:53:04.282Z,57.71
2023-05-13T09:54:04.323Z,57.38
2023-05-13T09:55:04.313Z,58.88
2023-05-13T09:56:04.324Z,58.10
2023-05-13T09:57:04.351Z,58.11
2023-05-13T09:58:04.366Z,57.76
2023-05-13T09:59:04.414Z,58.22
2023-05-13T10:00:04.358Z,57.27
2023-05-13T10:01:04.430Z,58.21
2023-05-13T10:02:04.402Z,57.98
2023-05-13T10:03:04.498Z,57.23
2023-05-13T10:04:04.507Z,57.62
2023-05-13T10:05:04.439Z,57.95
2023-05-13T10:06:04.432Z,56.59
2023-05-13T10:07:04.489Z,56.84
2023-05-13T10:08:04.505Z,57.98
2023-05-13T10:09:04.531Z,57.22
2023-05-13T10:10:04.561Z,57.69
2023-05-13T10:11:04.593Z,57.91
2023-05-13T10:12:04.589Z,57.81
2023-05-13T10:13:04.608Z,58.42
2023-05-13T10:14:04.605Z,58.52
2023-05-13T10:15:04.693Z,59.79
2023-05-13T10:16:04.680Z,58.92
2023-05-13T10:17:04.765Z,58.05
2023-05-13T10:18:07.368Z,58.73
2023-05-13T10:19:04.815Z,59.40
2023-05-13T10:20:04.742Z,59.13
2023-05-13T10:21:04.707Z,60.14
2023-05-13T10:22:04.685Z,59.57
2023-05-13T10:23:04.669Z,59.82
2023-05-13T10:24:04.650Z,59.48
2023-05-13T10:25:04.714Z,59.97
2023-05-13T10:26:04.627Z,59.69
2023-05-13T10:27:04.585Z,58.75
2023-05-13T10:28:04.551Z,57.86
2023-05-13T10:29:04.504Z,58.84
2023-05-13T10:30:04.452Z,58.74
2023-05-13T10:31:04.424Z,59.07
2023-05-13T10:32:04.543Z,60.19
2023-05-13T10:33:04.449Z,58.80
2023-05-13T10:34:04.320Z,58.07
2023-05-13T10:35:04.293Z,59.80
2023-05-13T10:36:04.275Z,55.50
2023-05-13T10:37:04.235Z,55.98
2023-05-13T10:38:04.226Z,54.52
2023-05-13T10:39:04.211Z,56.49
2023-05-13T10:40:04.651Z,56.04
2023-05-13T10:41:04.185Z,56.01
2023-05-13T10:42:04.188Z,55.21
2023-05-13T10:43:04.166Z,55.78
2023-05-13T10:44:04.152Z,56.51
2023-05-13T10:45:04.115Z,56.69
2023-05-13T10:46:04.268Z,56.26
2023-05-13T10:47:04.060Z,54.95
2023-05-13T10:48:04.127Z,54.44
2023-05-13T10:49:03.997Z,53.41
2023-05-13T10:50:03.973Z,52.65
2023-05-13T10:51:03.959Z,53.12
2023-05-13T10:52:04.009Z,53.23
2023-05-13T10:53:03.993Z,53.83
2023-05-13T10:54:04.035Z,53.12
2023-05-13T10:55:04.046Z,52.44
2023-05-13T10:56:04.081Z,52.19
2023-05-13T10:57:04.108Z,53.10
2023-05-13T10:58:04.135Z,52.27
2023-05-13T10:59:04.157Z,52.96
2023-05-13T11:00:04.179Z,52.50
2023-05-13T11:01:04.194Z,51.85
2023-05-13T11:02:04.304Z,52.50
2023-05-13T11:03:04.322Z,52.29
2023-05-13T11:04:04.385Z,50.66
2023-05-13T11:05:04.257Z,49.55
2023-05-13T11:06:04.265Z,49.61
2023-05-13T11:07:04.286Z,49.27
2023-05-13T11:08:04.369Z,48.79
2023-05-13T11:09:04.729Z,48.07
2023-05-13T11:10:04.370Z,49.55
2023-05-13T11:11:04.381Z,49.63
2023-05-13T11:12:04.421Z,49.82
2023-05-13T11:13:04.443Z,50.10
2023-05-13T11:14:04.473Z,50.62
2023-05-13T11:15:04.503Z,49.19
2023-05-13T11:16:04.554Z,48.17
2023-05-13T11:17:04.560Z,49.08
2023-05-13T11:18:04.588Z,49.05
2023-05-13T11:19:04.647Z,50.12
2023-05-13T11:20:04.622Z,49.31
2023-05-13T11:21:05.435Z,49.89
2023-05-13T11:22:04.718Z,50.61
2023-05-13T11:23:04.673Z,51.11
2023-05-13T11:24:04.727Z,50.04
2023-05-13T11:25:04.716Z,50.21
2023-05-13T11:26:04.745Z,49.65
2023-05-13T11:27:04.758Z,50.95
2023-05-13T11:28:04.793Z,52.36
2023-05-13T11:29:04.795Z,54.20
2023-05-13T11:30:04.845Z,53.66
2023-05-13T11:31:04.868Z,54.34
2023-05-13T11:32:04.883Z,54.67
2023-05-13T11:33:04.983Z,55.81
2023-05-13T11:34:04.962Z,56.14
2023-05-13T11:35:05.001Z,56.16
2023-05-13T11:36:05.051Z,55.58
2023-05-13T11:37:05.065Z,56.24
2023-05-13T11:38:05.093Z,57.38
2023-05-13T11:39:05.125Z,58.05
2023-05-13T11:40:05.169Z,57.37
2023-05-13T11:41:05.183Z,56.35
2023-05-13T11:42:05.210Z,57.50
2023-05-13T11:43:05.368Z,57.33
2023-05-13T11:44:05.277Z,57.49
2023-05-13T11:45:05.324Z,57.11
2023-05-13T11:46:05.385Z,57.98
2023-05-13T11:47:05.364Z,57.06
2023-05-13T11:48:05.430Z,57.31
2023-05-13T11:49:07.362Z,56.79
2023-05-13T11:50:05.350Z,56.16
2023-05-13T11:51:05.341Z,55.70
2023-05-13T11:52:05.299Z,54.26
2023-05-13T11:53:05.271Z,55.57
2023-05-13T11:54:05.242Z,54.12
2023-05-13T11:55:07.073Z,55.42
2023-05-13T11:56:05.248Z,56.35
2023-05-13T11:57:05.206Z,55.79
2023-05-13T11:58:05.194Z,54.52
2023-05-13T11:59:05.163Z,55.47
2023-05-13T12:00:06.180Z,56.15
2023-05-13T12:01:05.104Z,55.52
2023-05-13T12:02:05.155Z,56.02
2023-05-13T12:03:05.234Z,55.36
2023-05-13T12:04:05.045Z,54.61
2023-05-13T12:05:05.095Z,54.77
2023-05-13T12:06:05.010Z,54.48
2023-05-13T12:07:04.961Z,54.93
2023-05-13T12:08:04.949Z,56.63
2023-05-13T12:09:05.034Z,56.71
2023-05-13T12:10:05.011Z,55.71
2023-05-13T12:11:04.976Z,55.73
2023-05-13T12:12:05.018Z,55.63
2023-05-13T12:13:04.992Z,55.54
2023-05-13T12:14:05.024Z,55.20
2023-05-13T12:15:05.039Z,54.39
2023-05-13T12:16:05.067Z,53.88
2023-05-13T12:17:05.076Z,53.69
2023-05-13T12:18:05.165Z,54.14
2023-05-13T12:19:05.261Z,53.00
2023-05-13T12:20:05.868Z,53.75
2023-05-13T12:21:05.212Z,53.17
2023-05-13T12:22:05.711Z,51.75
2023-05-13T12:23:05.268Z,53.27
2023-05-13T12:24:05.302Z,53.92
2023-05-13T12:25:05.303Z,53.61
2023-05-13T12:26:05.291Z,53.79
2023-05-13T12:27:05.291Z,53.48
2023-05-13T12:28:05.351Z,54.42
2023-05-13T12:29:05.334Z,53.84
2023-05-13T12:30:05.377Z,52.81
2023-05-13T12:31:05.391Z,52.80
2023-05-13T12:32:05.409Z,52.85
2023-05-13T12:33:05.440Z,53.43
2023-05-13T12:34:05.401Z,53.92
2023-05-13T12:35:05.456Z,54.02
2023-05-13T12:36:05.441Z,53.68
2023-05-13T12:37:05.468Z,54.62
2023-05-13T12:38:05.472Z,54.07
2023-05-13T12:39:05.526Z,54.25
2023-05-13T12:40:05.530Z,54.70
2023-05-13T12:41:05.558Z,53.38
2023-05-13T12:42:05.544Z,53.76
2023-05-13T12:43:05.561Z,53.49
2023-05-13T12:44:05.620Z,52.51
2023-05-13T12:45:05.606Z,52.77
2023-05-13T12:46:05.650Z,52.65
2023-05-13T12:47:05.666Z,53.00
2023-05-13T12:48:05.792Z,52.40
2023-05-13T12:49:05.723Z,52.36
2023-05-13T12:50:05.764Z,52.26
2023-05-13T12:51:05.794Z,52.52
2023-05-13T12:52:05.858Z,52.34
2023-05-13T12:53:05.844Z,52.40